Time;durP1;ratioP1;P1;durP2;ratioP2;P2;SDS_P1;SDS_P2;PMS_P1;PMS_P2;Temp;Humidity;BMP_temperature;BMP_pressure;BME280_temperature;BME280_humidity;BME280_pressure;Samples;Min_cycle;Max_cycle;Signal;HPM_P1;HPM_P2
2022/07/23 00:00:54;;;;;;;10.20;8.50;;;;;;;26.19;43.65;100617.88;5009653;28;20497;-65
2022/07/23 00:03:19;;;;;;;9.02;8.23;;;;;;;26.16;43.59;100619.16;5027524;28;20029;-65
2022/07/23 00:05:45;;;;;;;9.40;7.85;;;;;;;26.06;43.80;100619.81;5016427;28;20034;-65
2022/07/23 00:08:10;;;;;;;11.57;8.38;;;;;;;25.98;44.06;100622.09;5021559;28;20023;-66
2022/07/23 00:10:36;;;;;;;12.65;8.82;;;;;;;25.93;44.50;100620.16;5021521;28;20124;-63
2022/07/23 00:13:02;;;;;;;10.65;8.02;;;;;;;25.87;44.90;100620.28;5028495;28;20021;-64
2022/07/23 00:15:28;;;;;;;8.77;7.93;;;;;;;25.82;44.77;100620.22;5026174;28;20030;-66
2022/07/23 00:17:54;;;;;;;12.88;8.52;;;;;;;25.82;44.71;100617.53;5028709;28;20032;-64
2022/07/23 00:20:19;;;;;;;10.27;8.02;;;;;;;25.79;44.77;100613.50;5028544;28;20030;-64
2022/07/23 00:22:51;;;;;;;9.50;8.23;;;;;;;25.77;44.92;100610.25;5010970;28;20026;-64
2022/07/23 00:25:18;;;;;;;9.20;8.27;;;;;;;25.70;45.17;100610.41;5015850;28;20106;-65
2022/07/23 00:27:44;;;;;;;9.57;8.50;;;;;;;25.67;45.12;100608.22;5023622;28;20080;-65
2022/07/23 00:30:10;;;;;;;11.00;8.38;;;;;;;25.64;45.38;100603.34;5016428;28;20053;-64
2022/07/23 00:32:49;;;;;;;11.18;8.45;;;;;;;25.57;45.81;100604.50;5010940;28;20038;-65
2022/07/23 00:35:16;;;;;;;9.15;8.30;;;;;;;25.50;45.73;100601.22;5022394;28;20026;-66
2022/07/23 00:37:42;;;;;;;14.82;8.18;;;;;;;25.45;46.00;100601.94;5031413;28;20050;-65
2022/07/23 00:40:08;;;;;;;12.45;8.52;;;;;;;25.41;45.94;100601.59;5026161;28;20043;-66
2022/07/23 00:42:34;;;;;;;11.35;8.15;;;;;;;25.46;45.89;100603.56;5040491;28;20120;-63
2022/07/23 00:44:59;;;;;;;11.20;7.85;;;;;;;25.49;45.53;100602.25;5012209;28;20018;-65
2022/07/23 00:47:25;;;;;;;10.90;9.10;;;;;;;25.46;45.78;100604.34;5022261;28;20037;-64
2022/07/23 00:49:51;;;;;;;11.07;8.25;;;;;;;25.46;45.78;100604.34;5022191;28;20033;-64
2022/07/23 00:52:17;;;;;;;9.48;8.38;;;;;;;25.43;45.69;100599.50;5007334;28;20528;-66
2022/07/23 00:54:42;;;;;;;9.00;8.10;;;;;;;25.38;46.05;100601.25;5008043;28;20041;-65
2022/07/23 00:57:09;;;;;;;14.15;8.77;;;;;;;25.28;46.27;100601.06;5008089;28;20054;-65
2022/07/23 00:59:34;;;;;;;11.65;8.18;;;;;;;25.19;46.72;100592.63;5009592;28;20564;-66
2022/07/23 01:02:00;;;;;;;11.85;8.65;;;;;;;25.18;47.03;100596.34;5018635;28;20030;-66
2022/07/23 01:04:26;;;;;;;11.93;9.02;;;;;;;25.14;46.94;100589.88;5008564;28;20057;-66
2022/07/23 01:06:51;;;;;;;14.10;8.57;;;;;;;25.08;46.78;100582.81;5020821;28;20095;-64
2022/07/23 01:09:17;;;;;;;8.88;7.97;;;;;;;25.03;46.86;100585.41;5012556;28;20385;-64
2022/07/23 01:11:43;;;;;;;14.82;9.80;;;;;;;25.02;46.77;100581.13;5009356;28;20030;-64
2022/07/23 01:14:14;;;;;;;14.50;8.30;;;;;;;25.00;46.31;100573.38;5011592;28;20553;-66
2022/07/23 01:16:41;;;;;;;11.32;8.75;;;;;;;25.08;45.58;100567.63;5021611;28;20057;-64
2022/07/23 01:19:06;;;;;;;11.27;8.07;;;;;;;25.14;45.34;100571.19;5015580;28;20041;-65
2022/07/23 01:21:39;;;;;;;11.23;8.68;;;;;;;25.20;44.63;100567.59;5011029;28;20088;-64
2022/07/23 01:24:06;;;;;;;10.07;8.93;;;;;;;25.24;44.47;100571.41;5015215;28;20239;-65
2022/07/23 01:26:31;;;;;;;13.98;11.88;;;;;;;25.15;45.22;100570.16;5025167;28;20037;-66
2022/07/23 01:28:57;;;;;;;15.85;14.27;;;;;;;24.87;46.48;100576.25;5021033;28;20018;-64
2022/07/23 01:31:22;;;;;;;15.63;14.13;;;;;;;24.76;46.78;100561.09;5011190;28;20029;-65
2022/07/23 01:33:48;;;;;;;13.55;11.80;;;;;;;24.88;45.52;100569.06;5008504;28;20026;-64
2022/07/23 01:36:14;;;;;;;13.70;10.05;;;;;;;25.13;43.88;100565.06;5019462;28;20387;-65
2022/07/23 01:38:40;;;;;;;12.32;9.50;;;;;;;25.29;43.36;100555.50;5024028;28;20132;-65
2022/07/23 01:41:05;;;;;;;9.75;8.35;;;;;;;25.39;43.33;100558.34;5020834;28;20103;-63
2022/07/23 01:43:31;;;;;;;9.35;8.50;;;;;;;25.52;42.97;100554.56;5021609;28;20067;-64
2022/07/23 01:45:56;;;;;;;12.65;8.35;;;;;;;25.58;42.95;100552.78;5018820;28;20022;-65
2022/07/23 01:48:22;;;;;;;9.60;8.70;;;;;;;25.52;43.22;100551.09;5019029;28;20034;-64
2022/07/23 01:50:47;;;;;;;14.50;9.05;;;;;;;25.42;43.80;100555.22;5026580;28;20557;-65
2022/07/23 01:53:14;;;;;;;11.20;9.25;;;;;;;25.37;43.73;100555.13;5011566;28;20021;-65
2022/07/23 01:55:40;;;;;;;9.75;8.73;;;;;;;25.35;43.70;100551.88;5021114;28;20095;-66
2022/07/23 01:58:06;;;;;;;9.90;8.90;;;;;;;25.21;44.11;100558.53;5024573;28;20095;-64
2022/07/23 02:00:32;;;;;;;9.27;8.07;;;;;;;25.10;44.91;100551.41;5022719;28;20034;-64
2022/07/23 02:03:00;;;;;;;10.80;8.55;;;;;;;24.95;45.82;100551.09;5012583;28;20029;-66
2022/07/23 02:05:28;;;;;;;9.32;8.27;;;;;;;24.83;46.51;100560.97;5026278;28;20030;-65
2022/07/23 02:07:54;;;;;;;9.10;8.20;;;;;;;24.73;46.86;100557.06;5027045;28;20511;-66
2022/07/23 02:10:21;;;;;;;11.73;9.32;;;;;;;24.66;47.07;100553.69;5024026;28;20038;-65
2022/07/23 02:12:46;;;;;;;11.68;9.15;;;;;;;24.56;47.19;100556.19;5012747;28;20398;-65
2022/07/23 02:15:12;;;;;;;14.25;8.80;;;;;;;24.60;47.26;100554.63;5020139;28;20018;-66
2022/07/23 02:17:38;;;;;;;12.35;8.55;;;;;;;24.57;46.94;100546.34;5022834;28;20041;-65
2022/07/23 02:20:04;;;;;;;13.23;8.98;;;;;;;24.58;46.98;100554.06;5012064;28;20532;-66
2022/07/23 02:22:30;;;;;;;12.05;8.85;;;;;;;24.62;46.69;100546.41;5030420;28;20039;-65
2022/07/23 02:24:56;;;;;;;10.32;8.98;;;;;;;24.66;46.20;100542.25;5024498;28;20408;-67
2022/07/23 02:27:21;;;;;;;10.73;8.73;;;;;;;24.69;45.51;100547.91;5021097;28;20537;-65
2022/07/23 02:29:47;;;;;;;10.43;8.50;;;;;;;24.75;45.15;100544.31;5013065;28;20035;-65
2022/07/23 02:32:12;;;;;;;11.32;9.27;;;;;;;24.79;44.97;100544.66;5010645;28;20045;-66
2022/07/23 02:34:38;;;;;;;10.73;9.55;;;;;;;24.87;44.58;100535.47;5017882;28;20481;-66
2022/07/23 02:37:04;;;;;;;11.35;10.00;;;;;;;24.83;44.70;100540.47;5021936;28;20048;-66
2022/07/23 02:39:29;;;;;;;15.40;12.07;;;;;;;24.69;45.13;100539.91;5010992;28;20072;-64
2022/07/23 02:41:55;;;;;;;17.17;13.45;;;;;;;24.60;45.47;100537.84;5023782;28;20088;-66
2022/07/23 02:44:21;;;;;;;12.85;10.02;;;;;;;24.53;45.72;100545.19;5014607;28;20153;-65
2022/07/23 02:46:46;;;;;;;10.52;9.45;;;;;;;24.55;45.46;100543.91;5010573;28;20558;-65
2022/07/23 02:49:12;;;;;;;14.63;9.55;;;;;;;24.56;45.02;100545.53;5010289;28;20036;-65
2022/07/23 02:51:37;;;;;;;14.63;9.38;;;;;;;24.53;45.71;100561.16;5015239;28;20492;-66
2022/07/23 02:54:03;;;;;;;10.82;9.40;;;;;;;24.48;46.16;100565.34;5030156;28;20040;-65
2022/07/23 02:56:28;;;;;;;11.05;9.43;;;;;;;24.42;46.80;100562.78;5019879;28;20045;-65
2022/07/23 02:58:54;;;;;;;14.65;9.57;;;;;;;24.35;47.37;100570.09;5010188;28;20115;-66
2022/07/23 03:01:19;;;;;;;9.90;8.27;;;;;;;24.25;48.22;100569.81;5011831;28;20474;-65
2022/07/23 03:03:45;;;;;;;9.68;8.63;;;;;;;24.20;48.47;100572.38;5010177;28;20042;-65
2022/07/23 03:06:11;;;;;;;10.38;8.55;;;;;;;24.14;48.94;100569.56;5012301;28;20075;-65
2022/07/23 03:08:37;;;;;;;10.77;8.98;;;;;;;24.13;48.93;100567.97;5030030;28;20033;-65
2022/07/23 03:11:02;;;;;;;10.63;9.52;;;;;;;24.13;49.01;100575.94;5021215;28;20032;-66
2022/07/23 03:13:29;;;;;;;10.80;9.40;;;;;;;24.12;48.73;100578.84;5020807;28;20544;-64
2022/07/23 03:15:54;;;;;;;11.80;9.73;;;;;;;24.10;49.02;100580.94;5014265;28;20152;-65
2022/07/23 03:18:20;;;;;;;11.77;9.50;;;;;;;24.12;48.91;100579.66;5009371;28;20133;-65
2022/07/23 03:20:46;;;;;;;12.30;9.65;;;;;;;24.12;49.25;100581.50;5026602;28;20036;-66
2022/07/23 03:23:11;;;;;;;10.60;9.48;;;;;;;24.12;48.61;100582.31;5016483;28;20073;-64
2022/07/23 03:25:37;;;;;;;10.13;9.10;;;;;;;24.15;48.61;100587.16;5012677;28;20449;-68
2022/07/23 03:28:02;;;;;;;11.60;9.50;;;;;;;24.10;48.68;100581.72;5009339;28;20030;-63
2022/07/23 03:30:28;;;;;;;12.25;8.75;;;;;;;24.12;48.52;100582.31;5009639;28;20072;-65
2022/07/23 03:32:54;;;;;;;10.90;9.57;;;;;;;24.11;48.90;100580.69;5009886;28;20084;-63
2022/07/23 03:35:19;;;;;;;10.10;9.10;;;;;;;24.07;49.23;100579.56;5008286;28;20022;-64
2022/07/23 03:37:45;;;;;;;11.45;9.80;;;;;;;24.09;49.17;100587.31;5011319;28;20730;-64
2022/07/23 03:40:11;;;;;;;10.93;9.73;;;;;;;24.12;49.36;100586.81;5011409;28;20140;-64
2022/07/23 03:42:37;;;;;;;11.20;10.07;;;;;;;24.10;49.58;100589.72;5019080;28;20452;-64
2022/07/23 03:45:04;;;;;;;13.18;9.25;;;;;;;24.09;49.82;100588.13;5024617;28;20021;-64
2022/07/23 03:47:30;;;;;;;12.68;9.82;;;;;;;24.05;49.40;100586.97;5018171;28;20025;-63
2022/07/23 03:49:55;;;;;;;11.32;9.13;;;;;;;24.02;49.32;100583.94;5015425;28;20172;-65
2022/07/23 03:52:21;;;;;;;17.27;9.90;;;;;;;24.03;49.08;100586.38;5024983;28;20040;-64
2022/07/23 03:54:46;;;;;;;13.23;10.07;;;;;;;24.03;48.67;100583.72;5010923;28;20056;-64
2022/07/23 03:57:12;;;;;;;15.10;10.90;;;;;;;24.07;48.54;100584.88;5008190;28;20037;-64
2022/07/23 03:59:37;;;;;;;11.13;9.43;;;;;;;24.09;48.09;100585.47;5008802;28;20035;-63
2022/07/23 04:02:03;;;;;;;12.70;10.35;;;;;;;24.08;48.04;100580.38;5009069;28;20480;-64
2022/07/23 04:04:28;;;;;;;10.88;9.80;;;;;;;24.09;47.80;100581.97;5008238;28;20048;-64
2022/07/23 04:06:54;;;;;;;12.60;9.88;;;;;;;24.10;47.84;100581.72;5008425;28;20046;-64
2022/07/23 04:09:19;;;;;;;11.48;9.63;;;;;;;24.13;47.35;100575.13;5008591;28;20026;-63
2022/07/23 04:11:45;;;;;;;11.55;9.77;;;;;;;24.22;47.07;100572.94;5009155;28;20254;-63
2022/07/23 04:14:10;;;;;;;11.77;10.50;;;;;;;24.20;47.36;100575.03;5007983;28;20232;-64
2022/07/23 04:16:36;;;;;;;11.25;10.15;;;;;;;24.11;48.29;100577.22;5007289;28;20367;-64
2022/07/23 04:19:04;;;;;;;15.75;11.18;;;;;;;24.09;48.20;100577.47;5015703;28;20041;-64
2022/07/23 04:21:30;;;;;;;12.93;11.38;;;;;;;24.12;48.02;100579.66;5016804;28;20033;-65
2022/07/23 04:23:55;;;;;;;13.38;10.75;;;;;;;24.15;47.69;100581.84;5011911;28;20045;-64
2022/07/23 04:26:21;;;;;;;14.82;11.02;;;;;;;24.13;47.94;100583.94;5024842;28;20693;-64
2022/07/23 04:28:46;;;;;;;14.27;11.13;;;;;;;24.14;48.22;100582.88;5024388;28;20037;-64
2022/07/23 04:31:12;;;;;;;15.95;10.80;;;;;;;24.13;49.01;100581.25;5011047;28;20068;-64
2022/07/23 04:33:37;;;;;;;14.98;10.88;;;;;;;24.03;49.68;100582.91;5024436;28;20413;-64
2022/07/23 04:36:03;;;;;;;17.17;10.57;;;;;;;24.01;50.31;100577.81;5014183;28;20064;-63
2022/07/23 04:38:29;;;;;;;11.75;10.18;;;;;;;23.92;50.90;100581.03;5020473;28;20560;-65
2022/07/23 04:40:54;;;;;;;12.23;10.50;;;;;;;23.83;51.42;100581.34;5015981;28;20025;-65
2022/07/23 04:43:20;;;;;;;11.88;10.68;;;;;;;23.83;51.76;100585.88;5023914;28;20034;-63
2022/07/23 04:45:45;;;;;;;15.07;9.88;;;;;;;23.83;51.72;100589.34;5021602;28;20025;-64
2022/07/23 04:48:11;;;;;;;11.95;10.60;;;;;;;23.88;51.44;100577.19;5026641;28;20036;-63
2022/07/23 04:50:36;;;;;;;13.85;10.60;;;;;;;23.93;51.61;100578.13;5021646;28;20030;-64
2022/07/23 04:53:02;;;;;;;15.90;11.77;;;;;;;23.99;50.73;100571.09;5008376;28;20033;-65
2022/07/23 04:55:28;;;;;;;14.13;12.68;;;;;;;24.11;49.64;100575.34;5015434;28;20033;-65
2022/07/23 04:57:53;;;;;;;14.40;12.15;;;;;;;24.26;48.83;100574.13;5016713;28;20036;-64
2022/07/23 05:00:19;;;;;;;12.98;11.15;;;;;;;24.42;47.42;100565.44;5015180;28;20401;-66
2022/07/23 05:02:44;;;;;;;13.30;12.00;;;;;;;24.52;47.39;100564.88;5011383;28;20338;-64
2022/07/23 05:05:10;;;;;;;15.25;12.93;;;;;;;24.57;47.29;100563.13;5026182;28;20017;-64
2022/07/23 05:07:35;;;;;;;18.08;13.38;;;;;;;24.69;46.92;100563.88;5047863;28;20021;-65
2022/07/23 05:10:01;;;;;;;14.60;13.18;;;;;;;24.81;46.30;100564.69;5028864;28;20393;-64
2022/07/23 05:12:26;;;;;;;13.07;11.82;;;;;;;24.79;46.78;100555.31;5014516;28;20041;-65
2022/07/23 05:14:52;;;;;;;13.23;11.23;;;;;;;24.77;47.15;100562.72;5013831;28;20038;-64
2022/07/23 05:17:18;;;;;;;13.32;11.63;;;;;;;24.84;47.53;100551.94;5007352;28;20034;-66
2022/07/23 05:19:43;;;;;;;12.65;10.75;;;;;;;24.87;48.02;100562.94;5010977;28;20591;-65
2022/07/23 05:22:09;;;;;;;11.77;10.30;;;;;;;24.84;48.54;100559.94;5019402;28;20440;-63
2022/07/23 05:24:34;;;;;;;11.95;10.75;;;;;;;24.79;48.57;100553.44;5019602;28;20041;-64
2022/07/23 05:27:00;;;;;;;11.93;10.68;;;;;;;24.87;48.56;100554.13;5024860;28;20029;-64
2022/07/23 05:29:25;;;;;;;11.85;10.75;;;;;;;24.89;48.42;100558.19;5033644;28;20412;-65
2022/07/23 05:31:51;;;;;;;14.00;11.07;;;;;;;24.98;48.34;100566.66;5026339;28;20417;-64
2022/07/23 05:34:16;;;;;;;12.00;10.75;;;;;;;25.04;48.50;100565.69;5031128;28;20029;-65
2022/07/23 05:36:42;;;;;;;11.80;10.60;;;;;;;25.00;49.11;100561.88;5029965;28;20025;-64
2022/07/23 05:39:07;;;;;;;14.00;10.88;;;;;;;24.96;49.36;100563.41;5031127;28;20072;-65
2022/07/23 05:41:33;;;;;;;12.00;10.48;;;;;;;24.96;49.44;100560.75;5029499;28;20029;-64
2022/07/23 05:43:58;;;;;;;11.73;10.27;;;;;;;24.95;49.43;100569.75;5014513;28;20029;-64
2022/07/23 05:46:24;;;;;;;14.68;11.30;;;;;;;24.95;49.52;100569.75;5031163;28;20436;-64
2022/07/23 05:48:49;;;;;;;12.43;9.63;;;;;;;25.03;49.04;100566.75;5031240;28;20102;-64
2022/07/23 05:51:25;;;;;;;14.32;10.73;;;;;;;25.14;49.07;100563.22;5031396;28;20489;-64
2022/07/23 05:53:51;;;;;;;12.38;10.98;;;;;;;25.23;48.79;100563.63;5023941;28;20115;-64
2022/07/23 05:56:19;;;;;;;13.82;10.02;;;;;;;25.33;48.42;100566.50;5029773;28;20071;-65
2022/07/23 05:58:44;;;;;;;14.73;12.25;;;;;;;25.42;48.24;100565.06;5011279;28;20124;-63
2022/07/23 06:01:11;;;;;;;13.43;10.38;;;;;;;25.49;48.33;100572.94;5015438;28;20140;-64
2022/07/23 06:03:37;;;;;;;14.00;10.40;;;;;;;25.53;48.32;100576.69;5021611;28;20860;-66
2022/07/23 06:06:04;;;;;;;11.50;10.18;;;;;;;25.52;48.48;100580.44;5011354;28;20485;-65
2022/07/23 06:08:29;;;;;;;11.05;9.80;;;;;;;25.66;48.45;100568.44;5024438;28;20067;-66
2022/07/23 06:10:55;;;;;;;13.68;10.15;;;;;;;25.83;48.10;100571.94;5030460;28;20107;-64
2022/07/23 06:13:21;;;;;;;13.20;10.20;;;;;;;25.94;47.84;100578.25;5026231;28;20350;-65
2022/07/23 06:15:46;;;;;;;13.45;11.15;;;;;;;25.97;47.79;100583.91;5010288;28;20026;-66
2022/07/23 06:18:11;;;;;;;11.50;10.40;;;;;;;26.05;47.56;100585.34;5015923;28;20030;-67
2022/07/23 06:20:37;;;;;;;14.48;10.25;;;;;;;26.18;47.03;100584.19;5030728;28;20764;-67
2022/07/23 06:23:03;;;;;;;12.68;10.77;;;;;;;26.31;46.83;100591.91;5030568;28;20025;-68
2022/07/23 06:25:30;;;;;;;12.02;10.52;;;;;;;26.34;47.05;100589.56;5018019;28;20037;-70
2022/07/23 06:27:55;;;;;;;10.73;9.65;;;;;;;26.52;46.72;100593.00;5019672;28;20057;-69
2022/07/23 06:30:21;;;;;;;12.68;10.13;;;;;;;26.65;46.05;100596.13;5010804;28;20497;-67
2022/07/23 06:32:47;;;;;;;11.32;10.13;;;;;;;26.75;45.42;100590.91;5010468;28;20030;-68
2022/07/23 06:35:13;;;;;;;11.15;10.00;;;;;;;26.84;45.47;100601.19;5010712;28;20048;-66
2022/07/23 06:37:39;;;;;;;12.77;10.05;;;;;;;26.86;45.60;100599.88;5010404;28;20133;-67
2022/07/23 06:40:05;;;;;;;13.82;11.07;;;;;;;26.94;45.30;100598.63;5017501;28;20453;-69
2022/07/23 06:42:30;;;;;;;17.10;10.98;;;;;;;27.06;45.10;100593.97;5024803;28;20034;-69
2022/07/23 06:44:56;;;;;;;17.48;11.75;;;;;;;27.21;44.46;100599.50;5024829;28;20397;-67
2022/07/23 06:47:21;;;;;;;14.75;11.00;;;;;;;27.41;44.29;100602.38;5026977;28;20061;-68
2022/07/23 06:49:47;;;;;;;17.92;11.73;;;;;;;27.58;43.40;100607.63;5028062;28;20058;-70
2022/07/23 06:52:12;;;;;;;12.20;11.00;;;;;;;27.77;42.86;100602.75;5017807;28;20216;-66
2022/07/23 06:54:38;;;;;;;12.40;10.73;;;;;;;27.91;42.91;100606.59;5025829;28;20041;-68
2022/07/23 06:57:03;;;;;;;11.43;10.07;;;;;;;28.11;42.46;100607.81;5012294;28;20125;-72
2022/07/23 06:59:29;;;;;;;12.20;10.25;;;;;;;28.26;41.95;100610.66;5023106;28;20048;-66
2022/07/23 07:01:54;;;;;;;14.65;10.77;;;;;;;28.46;41.68;100605.41;5017718;28;20437;-69
2022/07/23 07:04:20;;;;;;;12.00;10.77;;;;;;;28.58;41.32;100600.66;5010529;28;20037;-67
2022/07/23 07:06:45;;;;;;;11.77;10.57;;;;;;;28.70;40.79;100601.25;5018142;28;20025;-70
2022/07/23 07:09:11;;;;;;;16.88;11.02;;;;;;;28.76;40.29;100604.75;5018783;28;20033;-68
2022/07/23 07:11:36;;;;;;;15.43;10.68;;;;;;;28.82;40.75;100601.06;5014588;28;20632;-71
2022/07/23 07:14:04;;;;;;;14.05;10.38;;;;;;;28.90;40.56;100599.72;5012421;28;20021;-71
2022/07/23 07:16:29;;;;;;;11.35;10.18;;;;;;;28.97;40.38;100598.44;5014396;28;20042;-69
2022/07/23 07:18:55;;;;;;;13.70;10.68;;;;;;;29.03;40.41;100596.56;5022645;28;20511;-70
2022/07/23 07:21:20;;;;;;;12.90;11.23;;;;;;;29.15;40.14;100607.88;5010577;28;20033;-67
2022/07/23 07:23:46;;;;;;;14.32;11.35;;;;;;;29.26;39.96;100603.34;5009801;28;20073;-73
2022/07/23 07:26:11;;;;;;;13.25;11.02;;;;;;;29.36;39.35;100587.25;5024823;28;20029;-67
2022/07/23 07:28:37;;;;;;;15.13;11.43;;;;;;;29.52;39.36;100591.63;5012278;28;20049;-65
2022/07/23 07:31:02;;;;;;;12.05;10.95;;;;;;;29.62;38.88;100588.13;5009625;28;20084;-66
2022/07/23 07:33:28;;;;;;;12.15;11.05;;;;;;;29.66;38.91;100587.34;5015203;28;20036;-65
2022/07/23 07:35:54;;;;;;;15.77;12.52;;;;;;;29.81;38.35;100583.81;5028240;28;20021;-73
2022/07/23 07:38:19;;;;;;;13.10;11.60;;;;;;;29.96;38.01;100580.34;5028019;28;20113;-70
2022/07/23 07:40:45;;;;;;;15.43;13.07;;;;;;;30.11;38.21;100592.97;5027174;28;20044;-66
2022/07/23 07:43:11;;;;;;;14.23;12.90;;;;;;;30.26;37.54;100585.69;5014137;28;20512;-71
2022/07/23 07:45:36;;;;;;;13.27;12.00;;;;;;;30.32;37.12;100594.53;5022109;28;20522;-66
2022/07/23 07:48:02;;;;;;;15.65;13.63;;;;;;;30.50;37.10;100602.03;5023338;28;20022;-68
2022/07/23 07:50:27;;;;;;;16.27;14.52;;;;;;;30.64;37.18;100597.72;5020347;28;20080;-68
2022/07/23 07:52:53;;;;;;;19.65;15.45;;;;;;;30.76;36.58;100604.66;5020066;28;20435;-71
2022/07/23 07:55:18;;;;;;;19.02;15.93;;;;;;;30.91;36.10;100599.22;5030733;28;20029;-68
2022/07/23 07:57:44;;;;;;;16.67;15.07;;;;;;;31.05;35.92;100597.53;5032121;28;20523;-66
2022/07/23 08:00:11;;;;;;;21.08;14.63;;;;;;;31.15;36.35;100602.91;5022153;28;20033;-66
2022/07/23 08:02:47;;;;;;;15.00;13.48;;;;;;;31.27;35.03;100600.66;5022584;28;20042;-68
2022/07/23 08:05:13;;;;;;;19.55;15.43;;;;;;;31.49;35.93;100596.75;5024478;28;20061;-71
2022/07/23 08:07:39;;;;;;;24.38;18.98;;;;;;;31.75;35.15;100600.88;5026158;28;21632;-69
2022/07/23 08:10:08;;;;;;;19.67;16.75;;;;;;;31.80;35.27;100603.53;5027053;28;20045;-69
2022/07/23 08:12:45;;;;;;;22.17;19.80;;;;;;;31.95;33.09;100603.41;5019706;28;20067;-72
2022/07/23 08:15:12;;;;;;;26.02;23.13;;;;;;;31.99;33.29;100606.34;5016841;28;20087;-71
2022/07/23 08:17:38;;;;;;;22.25;20.05;;;;;;;31.88;33.36;100600.22;5022349;28;20029;-68
2022/07/23 08:20:05;;;;;;;26.13;21.75;;;;;;;31.77;33.94;100609.47;5027535;28;20126;-69
2022/07/23 08:23:02;;;;;;;26.65;23.88;;;;;;;31.63;34.11;100612.00;5012011;28;20033;-67
2022/07/23 08:25:30;;;;;;;23.42;21.08;;;;;;;31.66;34.39;100597.19;5011067;28;20132;-70
2022/07/23 08:27:57;;;;;;;29.23;20.60;;;;;;;31.80;34.13;100602.72;5015187;28;20038;-67
2022/07/23 08:30:23;;;;;;;23.58;21.15;;;;;;;31.99;33.65;100607.16;5010645;28;20034;-66
2022/07/23 08:33:00;;;;;;;26.88;23.33;;;;;;;32.58;32.50;100597.94;5014470;28;20036;-67
2022/07/23 08:35:40;;;;;;;25.70;23.08;;;;;;;33.09;31.19;100601.88;5028215;28;20561;-67
2022/07/23 08:38:08;;;;;;;23.80;21.27;;;;;;;33.26;32.01;100594.91;5028109;28;20605;-66
2022/07/23 08:40:39;;;;;;;24.48;21.15;;;;;;;32.96;33.08;100582.66;5023834;28;20029;-67
2022/07/23 08:43:06;;;;;;;23.77;21.48;;;;;;;32.56;35.33;100589.34;5008492;28;20038;-63
2022/07/23 08:45:36;;;;;;;29.55;21.80;;;;;;;32.65;33.57;100592.97;5013635;28;20125;-69
2022/07/23 08:48:03;;;;;;;25.85;23.10;;;;;;;32.51;33.29;100592.09;5019238;28;20026;-70
2022/07/23 08:50:29;;;;;;;27.73;22.83;;;;;;;32.51;33.65;100586.69;5027264;28;20295;-66
2022/07/23 08:52:56;;;;;;;27.90;24.95;;;;;;;32.66;32.82;100591.88;5010137;28;20038;-67
2022/07/23 08:55:23;;;;;;;26.38;23.67;;;;;;;32.59;32.85;100588.75;5025000;28;20073;-64
2022/07/23 08:57:50;;;;;;;27.70;24.98;;;;;;;33.14;31.29;100583.72;5012884;28;20381;-66
2022/07/23 09:00:17;;;;;;;27.83;24.98;;;;;;;33.26;31.29;100584.09;5022933;28;20037;-62
2022/07/23 09:02:44;;;;;;;27.67;24.90;;;;;;;33.23;31.62;100578.47;5033376;28;20029;-66
2022/07/23 09:05:12;;;;;;;27.33;24.75;;;;;;;33.12;31.86;100579.72;5032359;28;20559;-62
2022/07/23 09:07:58;;;;;;;28.70;24.23;;;;;;;33.45;31.51;100569.81;5017974;28;20029;-62
2022/07/23 09:10:23;;;;;;;27.45;24.75;;;;;;;33.85;30.34;100574.56;5021035;28;20120;-65
2022/07/23 09:12:49;;;;;;;26.25;23.65;;;;;;;34.15;29.99;100575.09;5020575;28;20112;-63
2022/07/23 09:15:14;;;;;;;24.33;22.05;;;;;;;34.16;28.95;100569.41;5023102;28;20442;-61
2022/07/23 09:17:42;;;;;;;23.67;21.27;;;;;;;33.93;28.92;100573.88;5025596;28;20435;-66
2022/07/23 09:20:14;;;;;;;22.55;20.23;;;;;;;34.18;28.62;100572.59;5047314;28;20029;-65
2022/07/23 09:22:45;;;;;;;23.83;21.38;;;;;;;34.17;28.36;100571.00;5021369;28;20432;-69
2022/07/23 09:25:14;;;;;;;23.95;21.40;;;;;;;33.99;29.10;100563.78;5020047;28;20580;-65
2022/07/23 09:27:46;;;;;;;22.27;19.80;;;;;;;33.67;30.33;100569.97;5038318;28;20111;-67
2022/07/23 09:30:12;;;;;;;23.65;21.25;;;;;;;33.76;29.02;100564.69;5017452;28;20034;-64
2022/07/23 09:32:39;;;;;;;18.92;16.65;;;;;;;34.32;28.27;100561.84;5018508;28;20614;-67
2022/07/23 09:35:05;;;;;;;15.80;14.23;;;;;;;34.87;28.70;100562.59;5023913;28;20135;-67
2022/07/23 09:37:31;;;;;;;20.23;16.00;;;;;;;35.26;26.30;100567.41;5027573;28;20572;-66
2022/07/23 09:40:08;;;;;;;18.13;16.25;;;;;;;34.81;26.24;100565.72;5028268;28;20179;-62
2022/07/23 09:42:34;;;;;;;17.05;15.63;;;;;;;34.52;26.02;100558.69;5031093;28;20037;-62
2022/07/23 09:45:00;;;;;;;17.20;14.82;;;;;;;34.47;26.73;100560.75;5031802;28;20024;-63
2022/07/23 09:47:28;;;;;;;15.55;13.65;;;;;;;34.56;26.11;100554.28;5023486;28;20029;-67
2022/07/23 09:50:06;;;;;;;13.25;12.05;;;;;;;34.75;25.82;100548.75;5016305;28;20032;-68
2022/07/23 09:52:52;;;;;;;21.73;15.15;;;;;;;34.72;25.41;100546.66;5021009;28;20041;-66
2022/07/23 09:55:19;;;;;;;15.32;13.82;;;;;;;34.83;26.14;100545.38;5014753;28;20048;-61
2022/07/23 09:57:56;;;;;;;15.77;14.38;;;;;;;34.88;26.17;100544.47;5015725;28;20171;-64
2022/07/23 10:00:23;;;;;;;15.77;13.90;;;;;;;34.72;26.16;100538.56;5029538;28;20045;-66
2022/07/23 10:02:50;;;;;;;14.13;12.73;;;;;;;34.94;25.55;100545.97;5024161;28;20022;-60
2022/07/23 10:05:16;;;;;;;16.40;14.75;;;;;;;34.81;25.39;100538.66;5019716;28;20034;-65
2022/07/23 10:07:43;;;;;;;16.80;15.20;;;;;;;34.97;26.67;100537.22;5028599;28;20373;-67
2022/07/23 10:10:10;;;;;;;18.77;16.90;;;;;;;35.21;25.94;100532.31;5014339;28;20033;-62
2022/07/23 10:15:17;;;;;;;18.85;16.90;;;;;;;35.36;26.00;100528.47;5020710;28;20140;-60
2022/07/23 10:17:42;;;;;;;18.25;16.63;;;;;;;35.30;25.30;100529.69;5025694;28;20112;-67
2022/07/23 10:20:08;;;;;;;18.13;16.33;;;;;;;35.44;24.57;100530.44;5025313;28;20103;-64
2022/07/23 10:22:55;;;;;;;17.48;15.63;;;;;;;35.31;25.17;100535.91;5019706;28;20026;-64
2022/07/23 10:25:34;;;;;;;18.40;16.60;;;;;;;35.18;24.48;100527.50;5018420;28;20604;-70
2022/07/23 10:28:24;;;;;;;18.80;16.98;;;;;;;35.39;24.31;100521.63;5022008;28;20022;-64
2022/07/23 10:31:22;;;;;;;21.15;19.13;;;;;;;35.72;24.93;100524.84;5019061;28;20037;-71
2022/07/23 10:34:17;;;;;;;23.88;21.35;;;;;;;35.59;22.99;100521.91;5014728;28;20108;-66
2022/07/23 10:36:47;;;;;;;;;;;;;;;35.32;24.31;100513.94;5016289;28;20088;-65
2022/07/23 10:39:31;;;;;;;22.08;19.92;;;;;;;35.31;24.45;100509.63;5013992;28;19927;-68
2022/07/23 10:42:15;;;;;;;22.23;20.02;;;;;;;35.01;24.59;100510.31;5023724;28;20037;-64
2022/07/23 10:44:47;;;;;;;21.40;19.13;;;;;;;35.14;25.83;100510.28;5024329;28;20791;-63
2022/07/23 10:49:46;;;;;;;25.15;22.40;;;;;;;35.56;25.86;100513.59;5024037;28;20041;-64
2022/07/23 10:52:15;;;;;;;24.85;22.55;;;;;;;35.66;25.57;100509.81;5010039;28;20026;-62
2022/07/23 10:54:51;;;;;;;25.20;22.80;;;;;;;35.57;24.63;100507.06;5015177;28;20037;-63
2022/07/23 10:57:19;;;;;;;25.98;23.58;;;;;;;35.43;25.25;100506.38;5027939;28;20030;-64
2022/07/23 11:00:09;;;;;;;30.08;27.38;;;;;;;35.45;24.66;100499.50;5019881;28;20033;-63
2022/07/23 11:02:36;;;;;;;31.95;28.85;;;;;;;35.47;24.72;100502.69;5025452;28;20037;-66
2022/07/23 11:05:04;;;;;;;32.72;29.27;;;;;;;35.29;25.80;100494.78;5018412;28;20029;-64
2022/07/23 11:07:29;;;;;;;32.92;29.60;;;;;;;35.46;25.81;100500.31;5015639;28;20033;-66
2022/07/23 11:09:55;;;;;;;32.42;29.25;;;;;;;35.63;25.64;100497.69;5030935;28;20035;-63
2022/07/23 11:12:21;;;;;;;34.13;30.75;;;;;;;35.54;24.79;100494.94;5028893;28;20184;-62
2022/07/23 11:14:59;;;;;;;34.40;31.08;;;;;;;35.12;25.67;100492.72;5022865;28;20527;-63
2022/07/23 11:17:25;;;;;;;36.28;32.85;;;;;;;35.20;24.77;100490.09;5021782;28;20043;-61